createdAt,value
2023-04-09T00:00:03.499Z,9.47
2023-04-09T00:02:31.609Z,8.47
2023-04-09T00:04:59.850Z,9.20
2023-04-09T00:07:29.403Z,8.97
2023-04-09T00:09:57.779Z,9.37
2023-04-09T00:12:26.085Z,8.57
2023-04-09T00:14:54.390Z,8.40
2023-04-09T00:17:22.643Z,9.50
2023-04-09T00:19:50.892Z,9.47
2023-04-09T00:22:22.065Z,9.13
2023-04-09T00:24:51.585Z,9.17
2023-04-09T00:27:19.768Z,9.57
2023-04-09T00:29:50.029Z,8.70
2023-04-09T00:32:21.518Z,9.60
2023-04-09T00:34:50.209Z,8.93
2023-04-09T00:37:18.283Z,9.83
2023-04-09T00:39:47.077Z,8.90
2023-04-09T00:42:16.718Z,9.43
2023-04-09T00:44:44.883Z,9.70
2023-04-09T00:47:13.165Z,9.37
2023-04-09T00:49:41.388Z,9.57
2023-04-09T00:52:09.584Z,9.00
2023-04-09T00:54:38.003Z,9.03
2023-04-09T00:57:06.329Z,9.47
2023-04-09T00:59:35.922Z,9.97
2023-04-09T01:02:04.106Z,10.73
2023-04-09T01:04:32.455Z,11.67
2023-04-09T01:07:06.974Z,11.37
2023-04-09T01:09:38.455Z,10.53
2023-04-09T01:12:13.624Z,11.57
2023-04-09T01:14:50.968Z,11.53
2023-04-09T01:17:26.334Z,11.40
2023-04-09T01:20:00.912Z,12.20
2023-04-09T01:22:42.478Z,12.70
2023-04-09T01:25:21.165Z,13.80
2023-04-09T01:27:59.419Z,12.90
2023-04-09T01:30:30.607Z,12.87
2023-04-09T01:33:02.131Z,12.83
2023-04-09T01:35:31.068Z,12.67
2023-04-09T01:38:00.517Z,12.57
2023-04-09T01:40:28.932Z,14.10
2023-04-09T01:42:59.697Z,12.63
2023-04-09T01:45:31.927Z,12.37
2023-04-09T01:48:01.784Z,12.43
2023-04-09T01:50:30.943Z,13.07
2023-04-09T01:52:59.240Z,12.97
2023-04-09T01:55:27.518Z,12.00
2023-04-09T01:57:56.064Z,11.80
2023-04-09T02:00:25.780Z,11.20
2023-04-09T02:03:02.883Z,12.40
2023-04-09T02:05:38.549Z,12.43
2023-04-09T02:08:09.707Z,12.30
2023-04-09T02:10:40.202Z,12.03
2023-04-09T02:13:12.718Z,11.37
2023-04-09T02:15:42.803Z,11.27
2023-04-09T02:18:24.492Z,11.73
2023-04-09T02:20:54.870Z,11.87
2023-04-09T02:23:23.250Z,11.27
2023-04-09T02:25:51.475Z,11.87
2023-04-09T02:28:19.673Z,12.73
2023-04-09T02:30:47.813Z,12.67
2023-04-09T02:33:16.230Z,12.57
2023-04-09T02:35:46.052Z,12.93
2023-04-09T02:38:16.153Z,12.27
2023-04-09T02:40:44.344Z,12.70
2023-04-09T02:43:12.906Z,13.73
2023-04-09T02:45:41.035Z,12.80
2023-04-09T02:48:09.169Z,13.40
2023-04-09T02:50:37.286Z,15.20
2023-04-09T02:53:25.655Z,13.77
2023-04-09T02:55:54.109Z,14.57
2023-04-09T02:58:22.189Z,15.63
2023-04-09T03:00:50.248Z,16.10
2023-04-09T03:03:18.429Z,16.40
2023-04-09T03:05:46.610Z,17.20
2023-04-09T03:08:16.302Z,16.90
2023-04-09T03:10:44.489Z,17.70
2023-04-09T03:13:13.166Z,17.87
2023-04-09T03:15:41.696Z,17.40
2023-04-09T03:18:09.912Z,18.10
2023-04-09T03:20:39.591Z,17.60
2023-04-09T03:23:07.715Z,17.00
2023-04-09T03:25:37.186Z,18.30
2023-04-09T03:28:05.257Z,17.53
2023-04-09T03:30:33.409Z,18.23
2023-04-09T03:33:01.590Z,18.57
2023-04-09T03:35:29.807Z,18.50
2023-04-09T03:37:57.964Z,17.83
2023-04-09T03:40:26.158Z,18.20
2023-04-09T03:42:55.805Z,21.30
2023-04-09T03:45:23.983Z,20.03
2023-04-09T03:47:52.086Z,20.70
2023-04-09T03:50:20.917Z,21.43
2023-04-09T03:52:49.179Z,18.70
2023-04-09T03:55:17.353Z,20.80
2023-04-09T03:58:03.092Z,20.73
2023-04-09T04:00:32.553Z,19.50
2023-04-09T04:03:01.094Z,20.40
2023-04-09T04:05:29.511Z,20.13
2023-04-09T04:07:57.545Z,20.17
2023-04-09T04:10:25.658Z,22.00
2023-04-09T04:12:55.393Z,20.43
2023-04-09T04:15:23.530Z,20.60
2023-04-09T04:17:53.282Z,21.63
2023-04-09T04:20:21.623Z,20.73
2023-04-09T04:22:49.813Z,21.10
2023-04-09T04:25:18.110Z,21.67
2023-04-09T04:27:46.189Z,20.43
2023-04-09T04:30:14.693Z,21.17
2023-04-09T04:32:42.902Z,21.20
2023-04-09T04:35:12.475Z,21.77
2023-04-09T04:37:40.675Z,20.30
2023-04-09T04:40:10.067Z,21.57
2023-04-09T04:42:38.139Z,19.53
2023-04-09T04:45:09.639Z,20.57
2023-04-09T04:47:38.138Z,20.30
2023-04-09T04:50:07.899Z,19.97
2023-04-09T04:52:38.941Z,20.47
2023-04-09T04:55:07.840Z,19.43
2023-04-09T04:57:35.935Z,20.00
2023-04-09T05:00:04.460Z,20.37
2023-04-09T05:02:32.769Z,19.80
2023-04-09T05:05:00.893Z,21.47
2023-04-09T05:07:29.050Z,22.33
2023-04-09T05:09:58.585Z,20.63
2023-04-09T05:12:26.728Z,21.60
2023-04-09T05:14:55.291Z,21.07
2023-04-09T05:17:24.778Z,22.07
2023-04-09T05:19:53.618Z,22.20
2023-04-09T05:22:21.928Z,22.73
2023-04-09T05:24:49.945Z,22.93
2023-04-09T05:27:20.973Z,21.13
2023-04-09T05:29:49.334Z,20.83
2023-04-09T05:32:17.550Z,21.63
2023-04-09T05:34:45.944Z,21.03
2023-04-09T05:37:14.286Z,20.83
2023-04-09T05:39:42.518Z,21.07
2023-04-09T05:42:11.061Z,20.87
2023-04-09T05:44:40.956Z,20.80
2023-04-09T05:47:09.013Z,20.80
2023-04-09T05:49:37.195Z,20.90
2023-04-09T05:52:05.379Z,20.50
2023-04-09T05:54:33.590Z,21.47
2023-04-09T05:57:01.869Z,21.00
2023-04-09T05:59:29.974Z,21.83
2023-04-09T06:01:59.611Z,22.43
2023-04-09T06:04:27.828Z,22.23
2023-04-09T06:06:56.292Z,20.80
2023-04-09T06:09:24.410Z,21.53
2023-04-09T06:11:52.688Z,21.47
2023-04-09T06:14:20.900Z,20.63
2023-04-09T06:16:49.074Z,20.83
2023-04-09T06:19:19.066Z,21.50
2023-04-09T06:21:47.449Z,20.23
2023-04-09T06:24:15.700Z,20.70
2023-04-09T06:26:43.701Z,22.07
2023-04-09T06:29:11.896Z,23.63
2023-04-09T06:31:40.191Z,20.17
2023-04-09T06:34:08.521Z,20.40
2023-04-09T06:36:40.577Z,14.90
2023-04-09T06:39:09.021Z,17.03
2023-04-09T06:41:37.094Z,13.07
2023-04-09T06:44:05.349Z,13.33
2023-04-09T06:46:33.502Z,14.03
2023-04-09T06:49:01.863Z,12.17
2023-04-09T06:51:30.174Z,13.27
2023-04-09T06:54:01.816Z,13.50
2023-04-09T06:56:29.881Z,13.57
2023-04-09T06:58:57.958Z,12.33
2023-04-09T07:01:27.227Z,12.93
2023-04-09T07:03:56.036Z,12.33
2023-04-09T07:06:24.485Z,12.00
2023-04-09T07:08:53.406Z,11.50
2023-04-09T07:11:23.149Z,10.63
2023-04-09T07:13:54.640Z,11.13
2023-04-09T07:16:23.819Z,11.30
2023-04-09T07:18:52.169Z,11.17
2023-04-09T07:21:20.601Z,10.20
2023-04-09T07:23:48.746Z,9.53
2023-04-09T07:26:16.818Z,10.13
2023-04-09T07:28:46.567Z,9.80
2023-04-09T07:31:16.049Z,12.60
2023-04-09T07:33:44.749Z,12.40
2023-04-09T07:36:13.051Z,9.13
2023-04-09T07:38:41.650Z,9.87
2023-04-09T07:41:12.319Z,9.47
2023-04-09T07:43:40.777Z,9.00
2023-04-09T07:46:10.190Z,9.70
2023-04-09T07:48:38.324Z,8.50
2023-04-09T07:51:06.424Z,9.70
2023-04-09T07:53:34.946Z,9.47
2023-04-09T07:56:03.369Z,8.83
2023-04-09T07:58:31.839Z,8.40
2023-04-09T08:00:59.929Z,8.70
2023-04-09T08:03:29.783Z,8.27
2023-04-09T08:05:58.171Z,7.27
2023-04-09T08:08:26.346Z,7.50
2023-04-09T08:10:55.700Z,8.50
2023-04-09T08:13:24.688Z,8.27
2023-04-09T08:15:53.241Z,8.93
2023-04-09T08:18:21.525Z,8.37
2023-04-09T08:20:51.102Z,8.03
2023-04-09T08:23:19.332Z,7.63
2023-04-09T08:25:48.816Z,7.10
2023-04-09T08:28:16.905Z,7.57
2023-04-09T08:30:45.088Z,6.87
2023-04-09T08:33:13.541Z,7.47
2023-04-09T08:35:41.955Z,8.70
2023-04-09T08:38:11.468Z,7.70
2023-04-09T08:40:39.814Z,8.03
2023-04-09T08:43:09.563Z,7.47
2023-04-09T08:45:37.936Z,6.73
2023-04-09T08:48:10.110Z,7.47
2023-04-09T08:50:38.624Z,7.30
2023-04-09T08:53:08.149Z,7.67
2023-04-09T08:55:38.224Z,7.30
2023-04-09T08:58:07.613Z,7.43
2023-04-09T09:00:35.850Z,7.80
2023-04-09T09:03:06.623Z,6.87
2023-04-09T09:05:39.197Z,7.17
2023-04-09T09:08:09.019Z,7.40
2023-04-09T09:10:44.310Z,7.37
2023-04-09T09:13:23.914Z,8.40
2023-04-09T09:15:55.513Z,7.63
2023-04-09T09:18:39.703Z,7.50
2023-04-09T09:21:19.624Z,6.97
2023-04-09T09:23:48.573Z,7.67
2023-04-09T09:26:20.853Z,8.47
2023-04-09T09:28:50.152Z,7.13
2023-04-09T09:31:21.146Z,8.10
2023-04-09T09:33:50.713Z,8.30
2023-04-09T09:36:33.525Z,7.47
2023-04-09T09:39:08.426Z,7.83
2023-04-09T09:41:38.248Z,7.57
2023-04-09T09:44:08.302Z,7.13
2023-04-09T09:46:39.508Z,7.40
2023-04-09T09:49:08.699Z,6.73
2023-04-09T09:51:40.722Z,7.97
2023-04-09T09:54:10.844Z,7.30
2023-04-09T09:56:43.567Z,7.07
2023-04-09T09:59:18.083Z,6.90
2023-04-09T10:01:47.485Z,6.87
2023-04-09T10:04:16.725Z,7.10
2023-04-09T10:06:46.985Z,7.53
2023-04-09T10:09:15.259Z,7.20
2023-04-09T10:11:48.390Z,8.73
2023-04-09T10:14:19.044Z,7.67
2023-04-09T10:16:48.359Z,7.47
2023-04-09T10:19:17.209Z,6.57
2023-04-09T10:21:53.621Z,8.13
2023-04-09T10:24:22.147Z,8.20
2023-04-09T10:26:55.983Z,6.17
2023-04-09T10:29:30.056Z,5.83
2023-04-09T10:32:06.453Z,6.73
2023-04-09T10:34:37.808Z,7.73
2023-04-09T10:37:08.971Z,8.17
2023-04-09T10:39:42.596Z,8.30
2023-04-09T10:42:15.899Z,9.17
2023-04-09T10:44:44.523Z,8.80
2023-04-09T10:47:13.405Z,8.03
2023-04-09T10:49:43.153Z,7.40
2023-04-09T10:52:13.905Z,7.27
2023-04-09T10:54:46.054Z,6.70
2023-04-09T10:57:21.622Z,5.93
2023-04-09T10:59:51.612Z,5.20
2023-04-09T11:02:56.277Z,5.30
2023-04-09T11:05:31.978Z,5.03
2023-04-09T11:08:06.267Z,4.97
2023-04-09T11:10:35.526Z,3.60
2023-04-09T11:13:05.312Z,3.60
2023-04-09T11:15:35.831Z,3.30
2023-04-09T11:18:05.185Z,3.23
2023-04-09T11:20:35.885Z,3.67
2023-04-09T11:23:04.504Z,3.70
2023-04-09T11:25:36.362Z,3.90
2023-04-09T11:28:08.276Z,4.23
2023-04-09T11:30:37.811Z,3.90
2023-04-09T11:33:06.058Z,3.63
2023-04-09T11:35:36.638Z,4.97
2023-04-09T11:38:08.386Z,3.70
2023-04-09T11:40:37.410Z,3.97
2023-04-09T11:43:09.748Z,3.80
2023-04-09T11:45:38.283Z,3.90
2023-04-09T11:48:06.766Z,4.50
2023-04-09T11:50:35.948Z,4.43
2023-04-09T11:53:17.244Z,4.57
2023-04-09T11:55:49.672Z,4.33
2023-04-09T11:58:19.310Z,4.67
2023-04-09T12:00:47.762Z,4.80
2023-04-09T12:03:17.070Z,4.53
2023-04-09T12:05:50.972Z,4.77
2023-04-09T12:08:25.018Z,4.63
2023-04-09T12:10:54.197Z,5.90
2023-04-09T12:13:33.248Z,6.13
2023-04-09T12:16:02.770Z,4.50
2023-04-09T12:18:30.994Z,4.60
2023-04-09T12:20:59.380Z,4.60
2023-04-09T12:23:27.518Z,4.27
2023-04-09T12:25:56.463Z,4.83
2023-04-09T12:28:26.069Z,4.30
2023-04-09T12:30:54.243Z,4.40
2023-04-09T12:33:22.516Z,4.73
2023-04-09T12:35:50.577Z,4.73
2023-04-09T12:38:18.782Z,4.77
2023-04-09T12:40:46.838Z,5.70
2023-04-09T12:43:15.281Z,5.50
2023-04-09T12:45:45.133Z,5.43
2023-04-09T12:48:13.300Z,5.37
2023-04-09T12:50:41.544Z,5.10
2023-04-09T12:53:10.591Z,5.97
2023-04-09T12:55:39.894Z,5.73
2023-04-09T12:58:09.240Z,5.70
2023-04-09T13:00:37.352Z,6.37
2023-04-09T13:03:07.324Z,5.43
2023-04-09T13:05:36.487Z,5.05
2023-04-09T13:08:04.994Z,4.77
2023-04-09T13:10:33.405Z,5.95
2023-04-09T13:13:01.639Z,5.28
2023-04-09T13:15:30.070Z,5.03
2023-04-09T13:17:58.257Z,4.28
2023-04-09T13:20:30.746Z,4.40
2023-04-09T13:22:58.962Z,6.38
2023-04-09T13:25:27.028Z,4.53
2023-04-09T13:27:55.525Z,5.10
2023-04-09T13:30:24.268Z,4.53
2023-04-09T13:32:52.676Z,4.55
2023-04-09T13:35:20.944Z,4.32
2023-04-09T13:37:50.665Z,4.47
2023-04-09T13:40:18.804Z,4.70
2023-04-09T13:42:47.019Z,4.22
2023-04-09T13:45:15.131Z,4.82
2023-04-09T13:47:43.435Z,5.18
2023-04-09T13:50:13.230Z,14.80
2023-04-09T13:52:41.453Z,5.20
2023-04-09T13:55:11.836Z,5.50
2023-04-09T13:57:40.072Z,5.53
2023-04-09T14:00:09.760Z,5.20
2023-04-09T14:02:37.981Z,4.18
2023-04-09T14:05:08.162Z,5.65
2023-04-09T14:07:36.641Z,6.22
2023-04-09T14:10:05.192Z,4.90
2023-04-09T14:12:34.715Z,5.65
2023-04-09T14:15:02.809Z,5.35
2023-04-09T14:17:30.925Z,6.00
2023-04-09T14:19:59.180Z,5.43
2023-04-09T14:22:30.017Z,5.30
2023-04-09T14:24:59.574Z,5.90
2023-04-09T14:27:27.649Z,5.15
2023-04-09T14:29:57.251Z,5.88
2023-04-09T14:32:25.544Z,5.10
2023-04-09T14:34:56.237Z,6.75
2023-04-09T14:37:24.329Z,5.32
2023-04-09T14:39:52.526Z,5.32
2023-04-09T14:42:21.055Z,5.35
2023-04-09T14:44:49.250Z,5.23
2023-04-09T14:47:19.000Z,5.20
2023-04-09T14:49:47.156Z,5.70
2023-04-09T14:52:15.392Z,4.93
2023-04-09T14:54:43.716Z,5.85
2023-04-09T14:57:11.892Z,5.32
2023-04-09T14:59:39.977Z,8.73
2023-04-09T15:02:08.068Z,7.60
2023-04-09T15:04:37.894Z,5.05
2023-04-09T15:07:06.921Z,5.13
2023-04-09T15:09:35.331Z,5.50
2023-04-09T15:12:03.663Z,5.15
2023-04-09T15:14:33.725Z,6.30
2023-04-09T15:17:01.873Z,4.70
2023-04-09T15:19:30.934Z,5.40
2023-04-09T15:22:01.776Z,5.63
2023-04-09T15:24:30.490Z,4.72
2023-04-09T15:26:58.752Z,5.18
2023-04-09T15:29:26.843Z,4.68
2023-04-09T15:31:55.370Z,5.50
2023-04-09T15:34:23.625Z,5.07
2023-04-09T15:36:51.731Z,5.13
2023-04-09T15:39:21.452Z,5.38
2023-04-09T15:41:49.750Z,5.20
2023-04-09T15:44:18.736Z,5.00
2023-04-09T15:46:46.870Z,5.00
2023-04-09T15:49:15.115Z,5.40
2023-04-09T15:51:43.544Z,5.55
2023-04-09T15:54:12.070Z,5.03
2023-04-09T15:56:41.660Z,5.97
2023-04-09T15:59:10.068Z,7.18
2023-04-09T16:01:38.593Z,5.83
2023-04-09T16:04:08.180Z,5.10
2023-04-09T16:06:36.595Z,6.32
2023-04-09T16:09:04.913Z,5.40
2023-04-09T16:11:35.941Z,5.15
2023-04-09T16:14:05.503Z,5.10
2023-04-09T16:16:33.641Z,9.13
2023-04-09T16:19:04.462Z,5.77
2023-04-09T16:21:32.646Z,5.30
2023-04-09T16:24:02.052Z,5.83
2023-04-09T16:26:30.158Z,5.60
2023-04-09T16:29:03.220Z,5.70
2023-04-09T16:31:32.832Z,5.93
2023-04-09T16:34:01.107Z,4.90
2023-04-09T16:36:29.492Z,6.30
2023-04-09T16:38:57.682Z,6.10
2023-04-09T16:41:28.106Z,5.77
2023-04-09T16:43:56.184Z,5.67
2023-04-09T16:46:25.012Z,5.90
2023-04-09T16:48:54.959Z,5.60
2023-04-09T16:51:23.288Z,5.57
2023-04-09T16:53:51.426Z,5.40
2023-04-09T16:56:19.784Z,18.47
2023-04-09T16:58:47.852Z,6.33
2023-04-09T17:01:16.129Z,6.00
2023-04-09T17:03:44.229Z,5.33
2023-04-09T17:06:13.830Z,6.80
2023-04-09T17:08:42.199Z,5.60
2023-04-09T17:11:10.338Z,5.60
2023-04-09T17:13:38.553Z,5.43
2023-04-09T17:16:07.634Z,6.00
2023-04-09T17:18:35.942Z,6.90
2023-04-09T17:21:04.261Z,5.80
2023-04-09T17:23:35.433Z,6.10
2023-04-09T17:26:03.525Z,6.17
2023-04-09T17:28:32.094Z,6.37
2023-04-09T17:31:00.393Z,5.27
2023-04-09T17:33:28.674Z,5.47
2023-04-09T17:35:57.744Z,6.43
2023-04-09T17:38:27.302Z,6.67
2023-04-09T17:40:56.779Z,6.33
2023-04-09T17:43:25.130Z,5.90
2023-04-09T17:45:53.344Z,5.30
2023-04-09T17:48:21.502Z,5.90
2023-04-09T17:50:50.230Z,4.97
2023-04-09T17:53:18.603Z,5.27
2023-04-09T17:55:48.884Z,5.73
2023-04-09T17:58:18.768Z,5.87
2023-04-09T18:00:47.031Z,5.30
2023-04-09T18:03:15.956Z,6.50
2023-04-09T18:05:44.534Z,5.53
2023-04-09T18:08:12.753Z,5.80
2023-04-09T18:10:40.964Z,5.50
2023-04-09T18:13:09.895Z,5.93
2023-04-09T18:15:39.785Z,5.87
2023-04-09T18:18:07.881Z,6.20
2023-04-09T18:20:35.968Z,6.30
2023-04-09T18:23:04.078Z,6.17
2023-04-09T18:25:32.348Z,6.10
2023-04-09T18:28:00.474Z,6.40
2023-04-09T18:30:28.850Z,6.87
2023-04-09T18:32:58.579Z,6.73
2023-04-09T18:35:27.054Z,9.03
2023-04-09T18:37:55.567Z,10.30
2023-04-09T18:40:23.810Z,10.30
2023-04-09T18:42:53.076Z,10.30
2023-04-09T18:45:21.425Z,10.43
2023-04-09T18:47:51.211Z,10.60
2023-04-09T18:50:21.212Z,10.50
2023-04-09T18:52:49.329Z,9.93
2023-04-09T18:55:18.359Z,8.90
2023-04-09T18:57:47.457Z,7.40
2023-04-09T19:00:16.308Z,8.00
2023-04-09T19:02:44.987Z,9.17
2023-04-09T19:05:14.298Z,7.37
2023-04-09T19:07:43.885Z,7.70
2023-04-09T19:10:12.228Z,7.30
2023-04-09T19:12:46.775Z,7.20
2023-04-09T19:15:15.024Z,8.07
2023-04-09T19:17:43.231Z,7.60
2023-04-09T19:20:12.640Z,8.13
2023-04-09T19:22:40.842Z,8.97
2023-04-09T19:25:11.540Z,11.33
2023-04-09T19:27:43.037Z,12.40
2023-04-09T19:30:12.023Z,11.77
2023-04-09T19:32:41.375Z,12.50
2023-04-09T19:35:10.586Z,11.37
2023-04-09T19:37:39.820Z,9.47
2023-04-09T19:40:11.014Z,8.00
2023-04-09T19:42:40.285Z,7.23
2023-04-09T19:45:09.794Z,7.37
2023-04-09T19:47:38.071Z,5.93
2023-04-09T19:50:07.112Z,6.13
2023-04-09T19:52:35.445Z,6.23
2023-04-09T19:55:05.132Z,6.23
2023-04-09T19:57:35.017Z,6.43
2023-04-09T20:00:05.125Z,6.50
2023-04-09T20:02:33.617Z,6.03
2023-04-09T20:05:02.027Z,5.30
2023-04-09T20:07:30.181Z,5.80
2023-04-09T20:09:58.221Z,6.10
2023-04-09T20:12:29.686Z,6.40
2023-04-09T20:15:00.059Z,5.80
2023-04-09T20:17:28.244Z,5.77
2023-04-09T20:19:56.911Z,5.73
2023-04-09T20:22:25.230Z,5.53
2023-04-09T20:24:55.538Z,5.53
2023-04-09T20:27:23.855Z,6.07
2023-04-09T20:29:53.080Z,5.67
2023-04-09T20:32:22.886Z,5.67
2023-04-09T20:34:51.307Z,6.50
2023-04-09T20:37:19.485Z,5.50
2023-04-09T20:39:47.450Z,6.10
2023-04-09T20:42:15.627Z,6.53
2023-04-09T20:44:44.958Z,6.40
2023-04-09T20:47:13.228Z,6.47
2023-04-09T20:49:45.974Z,6.53
2023-04-09T20:52:14.691Z,6.47
2023-04-09T20:54:43.468Z,6.70
2023-04-09T20:57:13.754Z,6.70
2023-04-09T20:59:42.370Z,7.57
2023-04-09T21:02:10.672Z,7.93
2023-04-09T21:04:38.823Z,6.73
2023-04-09T21:07:08.372Z,6.40
2023-04-09T21:09:36.604Z,7.10
2023-04-09T21:12:04.666Z,6.50
2023-04-09T21:14:33.036Z,6.50
2023-04-09T21:17:01.281Z,6.70
2023-04-09T21:19:29.403Z,5.57
2023-04-09T21:21:57.806Z,7.17
2023-04-09T21:24:28.069Z,6.50
2023-04-09T21:26:57.205Z,7.63
2023-04-09T21:29:26.286Z,7.67
2023-04-09T21:31:54.672Z,6.70
2023-04-09T21:34:23.046Z,6.10
2023-04-09T21:36:51.487Z,6.40
2023-04-09T21:39:19.620Z,7.03
2023-04-09T21:41:49.213Z,6.70
2023-04-09T21:44:17.379Z,7.07
2023-04-09T21:46:46.375Z,7.67
2023-04-09T21:49:14.908Z,7.60
2023-04-09T21:51:43.188Z,7.40
2023-04-09T21:54:11.714Z,7.23
2023-04-09T21:56:58.534Z,7.67
2023-04-09T21:59:28.329Z,7.07
2023-04-09T22:01:56.787Z,6.77
2023-04-09T22:04:25.044Z,7.23
2023-04-09T22:06:54.866Z,6.53
2023-04-09T22:09:23.042Z,6.40
2023-04-09T22:11:51.197Z,6.77
2023-04-09T22:14:19.936Z,7.00
2023-04-09T22:16:49.496Z,5.90
2023-04-09T22:19:17.640Z,6.50
2023-04-09T22:21:49.699Z,6.37
2023-04-09T22:24:18.283Z,7.00
2023-04-09T22:26:46.966Z,6.17
2023-04-09T22:29:15.242Z,5.70
2023-04-09T22:31:43.534Z,6.93
2023-04-09T22:34:20.597Z,6.03
2023-04-09T22:36:49.145Z,6.40
2023-04-09T22:39:17.357Z,6.30
2023-04-09T22:41:45.546Z,5.90
2023-04-09T22:44:13.756Z,6.20
2023-04-09T22:46:42.403Z,5.70
2023-04-09T22:49:11.605Z,5.33
2023-04-09T22:51:41.935Z,6.30
2023-04-09T22:54:10.560Z,6.47
2023-04-09T22:56:38.849Z,6.57
2023-04-09T22:59:07.235Z,7.10
2023-04-09T23:01:35.688Z,6.47
2023-04-09T23:04:04.122Z,7.10
2023-04-09T23:06:32.295Z,6.80
2023-04-09T23:09:02.252Z,7.00
2023-04-09T23:11:30.738Z,7.03
2023-04-09T23:13:59.081Z,6.50
2023-04-09T23:16:27.187Z,8.00
2023-04-09T23:18:55.727Z,8.10
2023-04-09T23:21:24.023Z,7.33
2023-04-09T23:23:52.931Z,6.67
2023-04-09T23:26:22.657Z,7.17
2023-04-09T23:28:50.961Z,6.97
2023-04-09T23:31:19.134Z,6.80
2023-04-09T23:33:47.381Z,7.27
2023-04-09T23:36:15.528Z,6.80
2023-04-09T23:38:46.950Z,6.70
2023-04-09T23:41:15.786Z,6.80
2023-04-09T23:43:46.078Z,6.27
2023-04-09T23:46:14.297Z,6.97
2023-04-09T23:48:42.348Z,6.33
2023-04-09T23:51:10.527Z,6.50
2023-04-09T23:53:39.257Z,7.23
2023-04-09T23:56:07.903Z,7.30
2023-04-09T23:58:36.025Z,7.77
